Time;durP1;ratioP1;P1;durP2;ratioP2;P2;SDS_P1;SDS_P2;PMS_P1;PMS_P2;Temp;Humidity;BMP_temperature;BMP_pressure;BME280_temperature;BME280_humidity;BME280_pressure;Samples;Min_cycle;Max_cycle;Signal;HPM_P1;HPM_P2
2022/05/02 00:00:41;;;;;;;0.70;0.70;;;7.40;99.90;;;;;;5091688;28;20410;-76
2022/05/02 00:03:07;;;;;;;0.67;0.67;;;7.40;99.90;;;;;;5092321;28;20216;-76
2022/05/02 00:05:32;;;;;;;0.70;0.70;;;7.30;99.90;;;;;;5091990;28;20580;-76
2022/05/02 00:07:57;;;;;;;0.70;0.70;;;7.40;99.90;;;;;;5092355;28;20178;-76
2022/05/02 00:10:23;;;;;;;0.70;0.70;;;7.40;99.90;;;;;;5091389;28;20213;-75
2022/05/02 00:12:49;;;;;;;0.70;0.70;;;7.40;99.90;;;;;;5092257;28;20227;-75
2022/05/02 00:15:14;;;;;;;0.70;0.70;;;7.40;99.90;;;;;;5091997;28;20218;-75
2022/05/02 00:17:58;;;;;;;0.70;0.70;;;7.40;99.90;;;;;;5091956;28;20170;-75
2022/05/02 00:20:28;;;;;;;0.70;0.70;;;7.50;99.90;;;;;;5091589;28;20197;-75
2022/05/02 00:22:55;;;;;;;0.80;0.80;;;7.30;99.90;;;;;;5091822;28;20181;-75
2022/05/02 00:25:20;;;;;;;0.70;0.70;;;7.30;99.90;;;;;;5091882;28;20312;-75
2022/05/02 00:27:47;;;;;;;0.70;0.70;;;7.40;99.90;;;;;;5091797;28;20264;-75
2022/05/02 00:30:13;;;;;;;0.70;0.70;;;7.40;99.90;;;;;;5091245;28;20166;-75
2022/05/02 00:32:39;;;;;;;0.70;0.70;;;7.50;99.90;;;;;;5091597;28;20181;-75
2022/05/02 00:35:06;;;;;;;0.70;0.70;;;7.50;99.90;;;;;;5091803;28;20206;-77
2022/05/02 00:37:32;;;;;;;0.70;0.70;;;7.60;99.90;;;;;;5073692;28;20287;-75
2022/05/02 00:39:58;;;;;;;0.80;0.80;;;7.60;99.90;;;;;;5090957;28;20178;-75
2022/05/02 00:42:23;;;;;;;0.67;0.67;;;7.60;99.90;;;;;;5091564;28;20733;-75
2022/05/02 00:44:49;;;;;;;0.70;0.70;;;7.60;99.90;;;;;;5091414;28;20264;-76
2022/05/02 00:47:20;;;;;;;0.60;0.60;;;7.50;99.90;;;;;;5093243;28;20173;-75
2022/05/02 00:49:46;;;;;;;0.70;0.70;;;7.40;99.90;;;;;;5095457;28;20325;-76
2022/05/02 00:52:12;;;;;;;0.80;0.80;;;7.40;99.90;;;;;;5095832;28;20200;-76
2022/05/02 00:54:37;;;;;;;0.80;0.80;;;7.20;99.90;;;;;;5095803;28;20209;-76
2022/05/02 00:57:09;;;;;;;0.63;0.63;;;7.20;99.90;;;;;;5095713;28;20174;-76
2022/05/02 00:59:37;;;;;;;0.60;0.60;;;7.20;99.90;;;;;;5094981;28;20726;-76
2022/05/02 01:02:05;;;;;;;0.70;0.70;;;7.30;99.90;;;;;;5095334;28;20189;-76
2022/05/02 01:04:30;;;;;;;0.70;0.70;;;7.20;99.90;;;;;;5096019;28;20203;-76
2022/05/02 01:07:08;;;;;;;0.60;0.60;;;7.10;99.90;;;;;;5077335;28;20174;-76
2022/05/02 01:09:34;;;;;;;0.70;0.70;;;7.20;99.90;;;;;;5094949;28;20650;-75
2022/05/02 01:12:00;;;;;;;0.70;0.70;;;7.20;99.90;;;;;;5095233;28;20666;-76
2022/05/02 01:14:26;;;;;;;0.70;0.70;;;7.20;99.90;;;;;;5095560;28;20290;-75
2022/05/02 01:16:51;;;;;;;0.80;0.80;;;7.10;99.90;;;;;;5095492;28;20174;-75
2022/05/02 01:19:17;;;;;;;0.70;0.70;;;7.00;99.90;;;;;;5094881;28;20641;-76
2022/05/02 01:21:46;;;;;;;0.70;0.70;;;7.10;99.90;;;;;;5095384;28;20193;-76
2022/05/02 01:24:11;;;;;;;0.60;0.60;;;7.10;99.90;;;;;;5095784;28;20186;-76
2022/05/02 01:26:37;;;;;;;0.67;0.67;;;7.20;99.90;;;;;;5095308;28;20661;-74
2022/05/02 01:29:03;;;;;;;0.70;0.70;;;7.10;99.90;;;;;;5095092;28;20223;-75
2022/05/02 01:31:29;;;;;;;0.70;0.70;;;7.10;99.90;;;;;;5095388;28;20205;-76
2022/05/02 01:33:55;;;;;;;0.80;0.80;;;7.10;99.90;;;;;;5095588;28;20275;-74
2022/05/02 01:36:22;;;;;;;0.70;0.70;;;7.10;99.90;;;;;;5095432;28;20213;-78
2022/05/02 01:38:49;;;;;;;0.73;0.73;;;7.10;99.90;;;;;;5095247;28;20189;-77
2022/05/02 01:41:15;;;;;;;0.67;0.67;;;7.20;99.90;;;;;;5094746;28;20615;-76
2022/05/02 01:43:42;;;;;;;0.77;0.77;;;7.10;99.90;;;;;;5095930;28;20170;-76
2022/05/02 01:46:09;;;;;;;0.60;0.60;;;7.20;99.90;;;;;;5095879;28;20200;-76
2022/05/02 01:48:35;;;;;;;0.70;0.70;;;7.10;99.90;;;;;;5095597;28;20692;-76
2022/05/02 01:51:01;;;;;;;0.70;0.70;;;7.10;99.90;;;;;;5094353;28;20562;-76
2022/05/02 01:53:27;;;;;;;0.60;0.60;;;7.10;99.90;;;;;;5096866;28;20202;-75
2022/05/02 01:55:53;;;;;;;0.77;0.77;;;7.20;99.90;;;;;;5099562;28;20217;-76
2022/05/02 01:58:18;;;;;;;0.70;0.70;;;7.00;99.90;;;;;;5099502;28;20257;-76
2022/05/02 02:00:44;;;;;;;0.80;0.80;;;6.90;99.90;;;;;;5098602;28;20205;-76
2022/05/02 02:03:10;;;;;;;0.70;0.70;;;7.00;99.90;;;;;;5094874;28;20211;-76
2022/05/02 02:05:50;;;;;;;0.70;0.70;;;7.10;99.90;;;;;;5094564;28;20170;-76
2022/05/02 02:08:21;;;;;;;0.80;0.80;;;7.20;99.90;;;;;;5094544;28;20177;-74
2022/05/02 02:10:47;;;;;;;0.70;0.70;;;7.00;99.90;;;;;;5094155;28;20225;-75
2022/05/02 02:13:13;;;;;;;0.80;0.80;;;7.10;99.90;;;;;;5094508;28;20177;-75
2022/05/02 02:15:39;;;;;;;0.70;0.70;;;7.10;99.90;;;;;;5094168;28;20638;-75
2022/05/02 02:18:05;;;;;;;0.70;0.70;;;7.10;99.90;;;;;;5096933;28;20174;-75
2022/05/02 02:20:31;;;;;;;0.70;0.70;;;7.30;99.90;;;;;;5098040;28;20204;-74
2022/05/02 02:22:57;;;;;;;0.80;0.80;;;7.30;99.90;;;;;;5099477;28;20639;-75
2022/05/02 02:25:22;;;;;;;0.77;0.77;;;7.40;99.90;;;;;;5099564;28;20181;-75
2022/05/02 02:27:48;;;;;;;0.73;0.73;;;7.20;99.90;;;;;;5094753;28;20639;-75
2022/05/02 02:30:18;;;;;;;0.60;0.60;;;7.10;99.90;;;;;;5093553;28;20178;-75
2022/05/02 02:32:43;;;;;;;0.77;0.77;;;7.20;99.90;;;;;;5094315;28;20197;-75
2022/05/02 02:35:09;;;;;;;0.70;0.70;;;7.20;99.90;;;;;;5093760;28;20272;-75
2022/05/02 02:37:35;;;;;;;0.67;0.67;;;7.30;99.90;;;;;;5094014;28;20367;-76
2022/05/02 02:40:00;;;;;;;0.73;0.73;;;7.40;99.90;;;;;;5093720;28;20222;-76
2022/05/02 02:42:26;;;;;;;0.80;0.80;;;7.40;99.90;;;;;;5094177;28;20200;-75
2022/05/02 02:44:51;;;;;;;0.70;0.70;;;7.30;99.90;;;;;;5093852;28;20180;-75
2022/05/02 02:47:17;;;;;;;0.70;0.70;;;7.10;99.90;;;;;;5094275;28;20252;-75
2022/05/02 02:49:43;;;;;;;0.70;0.70;;;7.10;99.90;;;;;;5093518;28;20237;-76
2022/05/02 02:52:08;;;;;;;0.70;0.70;;;7.10;99.90;;;;;;5095879;28;20197;-75
2022/05/02 02:54:35;;;;;;;0.63;0.63;;;7.10;99.90;;;;;;5096704;28;20209;-75
2022/05/02 02:57:01;;;;;;;0.67;0.67;;;6.90;99.90;;;;;;5096957;28;20241;-76
2022/05/02 02:59:26;;;;;;;0.70;0.70;;;7.10;99.90;;;;;;5094072;28;20247;-76
2022/05/02 03:01:52;;;;;;;0.80;0.80;;;7.00;99.90;;;;;;5093282;28;20186;-75
2022/05/02 03:07:02;;;;;;;0.70;0.70;;;7.30;99.90;;;;;;5093453;28;20177;-76
2022/05/02 03:09:29;;;;;;;0.80;0.80;;;7.30;99.90;;;;;;5092728;28;20177;-75
2022/05/02 03:11:54;;;;;;;0.87;0.87;;;7.50;99.90;;;;;;5074414;28;20208;-75
2022/05/02 03:14:20;;;;;;;0.70;0.70;;;7.60;99.90;;;;;;5092963;28;20210;-75
2022/05/02 03:16:45;;;;;;;0.70;0.70;;;7.30;99.90;;;;;;5093046;28;20170;-75
2022/05/02 03:19:11;;;;;;;0.83;0.83;;;7.20;99.90;;;;;;5092646;28;20184;-75
2022/05/02 03:21:37;;;;;;;0.77;0.77;;;7.20;99.90;;;;;;5093198;28;20231;-75
2022/05/02 03:24:03;;;;;;;0.70;0.70;;;7.30;99.90;;;;;;5108684;22;20338;-79
2022/05/02 03:26:32;;;;;;;0.60;0.60;;;7.30;99.90;;;;;;5098745;28;20211;-79
2022/05/02 03:28:58;;;;;;;0.73;0.73;;;7.30;99.90;;;;;;5085106;28;20527;-80
2022/05/02 03:31:24;;;;;;;0.70;0.70;;;7.30;99.90;;;;;;5101692;28;20194;-80
2022/05/02 03:33:50;;;;;;;0.70;0.70;;;7.30;99.90;;;;;;5101886;28;20201;-78
2022/05/02 03:36:16;;;;;;;0.70;0.70;;;7.40;99.90;;;;;;5101747;28;20268;-79
2022/05/02 03:38:41;;;;;;;0.70;0.70;;;7.30;99.90;;;;;;5100637;28;20178;-79
2022/05/02 03:41:12;;;;;;;0.70;0.70;;;7.40;99.90;;;;;;5096290;28;20289;-77
2022/05/02 03:43:42;;;;;;;0.73;0.73;;;7.30;99.90;;;;;;5095729;28;20193;-77
2022/05/02 03:46:14;;;;;;;0.70;0.70;;;7.20;99.90;;;;;;5096328;28;20182;-77
2022/05/02 03:48:44;;;;;;;0.70;0.70;;;7.20;99.90;;;;;;5096268;28;20227;-77
2022/05/02 03:51:10;;;;;;;0.73;0.73;;;7.20;99.90;;;;;;5095719;28;20198;-78
2022/05/02 03:53:36;;;;;;;0.70;0.70;;;7.30;99.90;;;;;;5095899;28;20177;-78
2022/05/02 03:56:08;;;;;;;0.70;0.70;;;7.20;99.90;;;;;;5096285;28;20712;-77
2022/05/02 03:58:34;;;;;;;0.67;0.67;;;7.40;99.90;;;;;;5096054;28;20654;-79
2022/05/02 04:01:00;;;;;;;0.70;0.70;;;7.30;99.90;;;;;;5095262;28;20217;-78
2022/05/02 04:03:25;;;;;;;0.70;0.70;;;7.30;99.90;;;;;;5095252;28;20552;-78
2022/05/02 04:05:51;;;;;;;0.70;0.70;;;7.40;99.90;;;;;;5103043;28;20170;-77
2022/05/02 04:08:26;;;;;;;0.80;0.80;;;7.50;99.90;;;;;;5101993;28;20180;-78
2022/05/02 04:10:52;;;;;;;0.70;0.70;;;7.50;99.90;;;;;;5094137;28;20577;-78
2022/05/02 04:13:18;;;;;;;0.70;0.70;;;7.60;99.90;;;;;;5101630;28;20170;-77
2022/05/02 04:15:44;;;;;;;0.67;0.67;;;7.60;99.90;;;;;;5095111;28;20613;-77
2022/05/02 04:18:09;;;;;;;0.80;0.80;;;7.60;99.90;;;;;;5093294;28;20170;-77
2022/05/02 04:20:35;;;;;;;0.67;0.67;;;7.60;99.90;;;;;;5092523;28;20593;-78
2022/05/02 04:23:02;;;;;;;0.73;0.73;;;7.40;99.90;;;;;;5095852;28;20185;-77
2022/05/02 04:25:28;;;;;;;0.70;0.70;;;7.30;99.90;;;;;;5078459;28;20202;-78
2022/05/02 04:27:54;;;;;;;0.70;0.70;;;7.30;99.90;;;;;;5098238;28;20185;-77
2022/05/02 04:30:19;;;;;;;0.70;0.70;;;7.50;99.90;;;;;;5100227;28;20208;-78
2022/05/02 04:32:45;;;;;;;0.77;0.77;;;7.90;99.90;;;;;;5098482;28;20206;-77
2022/05/02 04:35:12;;;;;;;0.70;0.70;;;8.20;99.90;;;;;;5095468;28;20217;-78
2022/05/02 04:37:42;;;;;;;0.80;0.80;;;8.80;99.90;;;;;;5094434;28;20227;-78
2022/05/02 04:40:10;;;;;;;0.70;0.70;;;8.20;99.90;;;;;;5093286;28;20174;-78
2022/05/02 04:42:37;;;;;;;0.70;0.70;;;8.20;99.90;;;;;;5094283;28;20177;-77
2022/05/02 04:45:04;;;;;;;0.70;0.70;;;8.30;99.90;;;;;;5096701;28;20185;-78
2022/05/02 04:47:39;;;;;;;0.60;0.60;;;8.70;99.90;;;;;;5096954;28;20189;-77
2022/05/02 04:50:25;;;;;;;0.70;0.70;;;8.80;99.90;;;;;;5094617;28;20214;-77
2022/05/02 04:52:50;;;;;;;0.70;0.70;;;8.50;99.90;;;;;;5095481;28;20189;-77
2022/05/02 04:55:16;;;;;;;0.70;0.70;;;8.20;99.90;;;;;;5096682;28;20224;-77
2022/05/02 04:57:41;;;;;;;0.70;0.70;;;8.10;99.90;;;;;;5096483;28;20173;-77
2022/05/02 05:00:07;;;;;;;0.70;0.70;;;8.10;99.90;;;;;;5096240;28;20177;-77
2022/05/02 05:02:48;;;;;;;0.63;0.63;;;8.10;99.90;;;;;;5097679;28;20182;-77
2022/05/02 05:05:33;;;;;;;0.70;0.70;;;8.30;99.90;;;;;;5096162;28;20182;-77
2022/05/02 05:07:59;;;;;;;0.60;0.60;;;8.40;99.90;;;;;;5090695;28;20715;-78
2022/05/02 05:10:25;;;;;;;0.60;0.60;;;8.50;99.90;;;;;;5097515;28;20209;-77
2022/05/02 05:13:07;;;;;;;0.60;0.60;;;8.90;99.90;;;;;;5098033;28;20229;-77
2022/05/02 05:16:24;;;;;;;0.77;0.77;;;8.80;99.90;;;;;;5096996;28;20216;-76
2022/05/02 05:19:28;;;;;;;0.70;0.70;;;8.60;99.90;;;;;;5094634;28;20178;-77
2022/05/02 05:22:44;;;;;;;0.70;0.70;;;8.40;99.90;;;;;;5093500;28;20289;-77
2022/05/02 05:25:20;;;;;;;0.60;0.60;;;8.50;99.90;;;;;;5094893;28;20647;-78
2022/05/02 05:28:04;;;;;;;0.60;0.60;;;8.70;99.90;;;;;;5092546;28;20589;-77
2022/05/02 05:30:38;;;;;;;0.60;0.60;;;8.70;99.90;;;;;;5093239;28;20276;-77
2022/05/02 05:33:51;;;;;;;0.70;0.70;;;8.70;99.90;;;;;;5077186;28;20204;-78
2022/05/02 05:36:25;;;;;;;0.60;0.60;;;8.70;99.90;;;;;;5092003;28;20225;-78
2022/05/02 05:39:04;;;;;;;0.60;0.60;;;8.60;99.90;;;;;;5077249;28;20701;-78
2022/05/02 05:42:01;;;;;;;0.60;0.60;;;8.70;99.90;;;;;;5095672;28;20197;-78
2022/05/02 05:45:04;;;;;;;0.70;0.70;;;8.90;99.90;;;;;;5077856;28;20269;-77
2022/05/02 05:47:39;;;;;;;0.70;0.70;;;9.20;99.90;;;;;;5094991;28;20175;-75
2022/05/02 05:50:20;;;;;;;0.70;0.70;;;9.30;99.90;;;;;;5095520;28;20173;-78
2022/05/02 05:53:23;;;;;;;0.70;0.70;;;9.40;99.90;;;;;;5096143;28;20261;-75
2022/05/02 05:56:15;;;;;;;0.60;0.60;;;9.40;99.90;;;;;;5095802;28;20258;-75
2022/05/02 05:59:19;;;;;;;0.60;0.60;;;9.50;99.90;;;;;;5043422;28;20180;-76
2022/05/02 06:01:47;;;;;;;0.70;0.70;;;9.40;99.90;;;;;;5064601;28;20737;-76
2022/05/02 06:04:15;;;;;;;0.70;0.70;;;9.50;99.90;;;;;;5103407;28;20558;-76
2022/05/02 06:06:42;;;;;;;0.50;0.50;;;9.50;99.90;;;;;;5104994;28;20181;-76
2022/05/02 06:09:10;;;;;;;0.70;0.70;;;9.70;99.90;;;;;;5097837;28;20547;-76
2022/05/02 06:11:39;;;;;;;0.67;0.67;;;9.60;99.90;;;;;;5097131;28;20754;-77
2022/05/02 06:14:06;;;;;;;0.60;0.60;;;9.90;99.90;;;;;;5091152;28;20212;-76
2022/05/02 06:19:28;;;;;;;0.70;0.70;;;9.90;99.90;;;;;;5087476;28;20549;-77
2022/05/02 06:21:55;;;;;;;0.60;0.60;;;9.90;99.90;;;;;;5088567;28;20197;-76
2022/05/02 06:24:25;;;;;;;0.60;0.60;;;10.00;99.90;;;;;;5094096;28;20205;-77
2022/05/02 06:26:51;;;;;;;0.50;0.50;;;10.40;62.80;;;;;;5094195;28;20185;-78
2022/05/02 06:29:18;;;;;;;0.60;0.60;;;10.60;90.00;;;;;;5093660;28;20611;-76
2022/05/02 06:31:46;;;;;;;0.60;0.60;;;10.60;29.30;;;;;;5093933;28;20272;-77
2022/05/02 06:34:13;;;;;;;0.60;0.60;;;10.60;43.10;;;;;;5094247;28;20271;-77
2022/05/02 06:37:07;;;;;;;0.53;0.53;;;10.90;85.20;;;;;;5095071;28;20735;-76
2022/05/02 06:39:44;;;;;;;0.63;0.63;;;10.80;1.00;;;;;;5095411;28;20173;-77
2022/05/02 06:42:21;;;;;;;0.67;0.67;;;11.20;1.00;;;;;;5095209;28;20205;-77
2022/05/02 06:45:09;;;;;;;0.53;0.53;;;11.20;1.00;;;;;;5094242;28;20559;-77
2022/05/02 06:47:43;;;;;;;0.60;0.60;;;11.30;1.00;;;;;;5086820;28;20193;-77
2022/05/02 06:50:10;;;;;;;0.60;0.60;;;11.10;1.00;;;;;;5086988;28;20184;-77
2022/05/02 06:52:55;;;;;;;0.57;0.57;;;11.50;1.00;;;;;;5085862;28;20178;-77
2022/05/02 06:55:58;;;;;;;0.60;0.60;;;11.90;1.00;;;;;;5087523;28;20712;-78
2022/05/02 06:58:39;;;;;;;0.40;0.40;;;11.90;1.00;;;;;;5091409;28;20173;-78
2022/05/02 07:01:07;;;;;;;0.40;0.40;;;12.10;1.00;;;;;;5092468;28;20205;-78
2022/05/02 07:04:04;;;;;;;0.50;0.50;;;12.00;1.00;;;;;;5087156;28;20173;-77
2022/05/02 07:06:47;;;;;;;0.50;0.50;;;12.20;1.00;;;;;;5092986;28;20193;-77
2022/05/02 07:09:30;;;;;;;0.40;0.40;;;12.30;99.90;;;;;;5087489;28;20673;-76
2022/05/02 07:12:11;;;;;;;0.40;0.40;;;12.40;99.90;;;;;;5089498;28;20230;-77
2022/05/02 07:14:58;;;;;;;0.50;0.50;;;12.70;99.90;;;;;;5088672;28;20240;-78
2022/05/02 07:17:44;;;;;;;0.50;0.50;;;13.00;1.00;;;;;;5097705;28;20185;-78
2022/05/02 07:20:15;;;;;;;0.40;0.40;;;13.40;99.90;;;;;;5098329;28;20174;-78
2022/05/02 07:22:53;;;;;;;0.40;0.40;;;13.40;99.90;;;;;;5100981;28;20174;-78
2022/05/02 07:25:23;;;;;;;0.40;0.40;;;13.50;1.00;;;;;;5096812;28;20185;-78
2022/05/02 07:28:17;;;;;;;0.50;0.50;;;13.60;1.00;;;;;;5099657;28;20178;-78
2022/05/02 07:30:44;;;;;;;0.40;0.40;;;13.90;1.00;;;;;;5102088;28;20189;-77
2022/05/02 07:33:12;;;;;;;0.50;0.50;;;14.00;1.00;;;;;;5102894;28;20205;-78
2022/05/02 07:35:39;;;;;;;0.40;0.40;;;14.40;99.90;;;;;;5100941;28;20209;-77
2022/05/02 07:38:05;;;;;;;0.40;0.40;;;14.80;99.90;;;;;;5099926;28;20255;-78
2022/05/02 07:40:32;;;;;;;0.40;0.40;;;15.20;99.90;;;;;;5101089;28;20190;-78
2022/05/02 07:43:00;;;;;;;0.40;0.40;;;15.80;99.90;;;;;;5104472;28;20635;-78
2022/05/02 07:45:30;;;;;;;0.40;0.40;;;16.40;1.00;;;;;;5103538;28;20189;-77
2022/05/02 07:48:03;;;;;;;0.30;0.30;;;16.80;1.00;;;;;;5110057;28;20181;-77
2022/05/02 07:50:30;;;;;;;0.40;0.40;;;16.60;1.00;;;;;;5106921;28;20208;-78
2022/05/02 07:52:58;;;;;;;0.40;0.40;;;16.70;1.00;;;;;;5105947;28;20268;-77
2022/05/02 07:55:24;;;;;;;0.37;0.37;;;17.40;1.00;;;;;;5100429;28;20217;-79
2022/05/02 07:57:55;;;;;;;0.40;0.40;;;17.60;1.00;;;;;;5100197;28;20180;-77
2022/05/02 08:00:22;;;;;;;0.40;0.40;;;17.80;1.00;;;;;;5103176;28;20707;-78
2022/05/02 08:02:48;;;;;;;0.40;0.40;;;17.90;1.00;;;;;;5100730;28;20192;-78
2022/05/02 08:05:20;;;;;;;0.40;0.40;;;17.90;1.00;;;;;;5101714;28;20182;-77
2022/05/02 08:07:45;;;;;;;0.40;0.40;;;17.60;1.00;;;;;;5099356;28;20177;-77
2022/05/02 08:10:56;;;;;;;0.37;0.37;;;17.00;1.00;;;;;;5099000;28;20177;-77
2022/05/02 08:13:38;;;;;;;0.40;0.40;;;17.40;1.00;;;;;;5091976;28;20192;-78
2022/05/02 08:16:10;;;;;;;0.30;0.30;;;17.50;1.00;;;;;;5093948;28;20214;-77
2022/05/02 08:19:09;;;;;;;0.50;0.50;;;17.60;1.00;;;;;;5095875;28;20659;-78
2022/05/02 08:21:45;;;;;;;0.50;0.50;;;18.40;1.00;;;;;;5095018;28;20202;-77
2022/05/02 08:27:37;;;;;;;0.33;0.33;;;19.00;1.00;;;;;;5095837;28;20180;-79
2022/05/02 08:30:21;;;;;;;0.30;0.30;;;19.70;1.00;;;;;;5093872;28;20305;-77
2022/05/02 08:33:00;;;;;;;0.30;0.30;;;19.90;1.00;;;;;;5093318;28;20188;-77
2022/05/02 08:35:57;;;;;;;0.40;0.40;;;19.70;1.00;;;;;;5093404;28;20205;-77
2022/05/02 08:38:31;;;;;;;0.30;0.30;;;19.70;1.00;;;;;;5094624;28;20261;-77
2022/05/02 08:41:08;;;;;;;0.50;0.50;;;19.80;1.00;;;;;;5093597;28;20190;-78
2022/05/02 08:43:58;;;;;;;0.37;0.37;;;19.40;1.00;;;;;;5097338;28;20165;-77
2022/05/02 08:46:43;;;;;;;0.30;0.30;;;19.30;1.00;;;;;;5094890;28;20661;-78
2022/05/02 08:49:48;;;;;;;0.50;0.50;;;19.70;1.00;;;;;;5094645;28;20166;-78
2022/05/02 08:52:23;;;;;;;0.50;0.50;;;19.20;1.00;;;;;;5095857;28;20193;-78
2022/05/02 08:55:13;;;;;;;0.50;0.50;;;19.70;1.00;;;;;;5095658;28;20228;-77
2022/05/02 08:58:01;;;;;;;0.40;0.40;;;19.90;1.00;;;;;;5094806;28;20673;-77
2022/05/02 09:01:12;;;;;;;0.43;0.43;;;20.40;1.00;;;;;;5093772;28;20276;-77
2022/05/02 09:04:27;;;;;;;0.50;0.50;;;20.10;1.00;;;;;;5092714;28;20263;-78
2022/05/02 09:07:24;;;;;;;0.40;0.40;;;20.60;1.00;;;;;;5092822;28;20181;-77
2022/05/02 09:10:05;;;;;;;0.30;0.30;;;20.20;1.00;;;;;;5095241;28;20197;-76
2022/05/02 09:12:33;;;;;;;0.40;0.40;;;19.20;1.00;;;;;;5109860;28;20194;-78
2022/05/02 09:15:31;;;;;;;0.40;0.40;;;19.80;1.00;;;;;;5112457;28;20213;-79
2022/05/02 09:18:26;;;;;;;0.50;0.50;;;21.00;1.00;;;;;;5114955;28;20246;-78
2022/05/02 09:21:24;;;;;;;0.40;0.40;;;20.50;1.00;;;;;;5113479;28;20746;-80
2022/05/02 09:24:03;;;;;;;0.53;0.53;;;19.40;1.00;;;;;;5101294;28;20177;-79
2022/05/02 09:27:13;;;;;;;0.30;0.30;;;19.30;1.00;;;;;;5087194;22;20244;-76
2022/05/02 09:30:14;;;;;;;0.30;0.30;;;20.20;1.00;;;;;;5039041;28;20610;-76
2022/05/02 09:32:48;;;;;;;0.40;0.40;;;19.00;1.00;;;;;;5012906;28;20201;-76
2022/05/02 09:35:17;;;;;;;0.43;0.43;;;19.10;1.00;;;;;;5044667;28;20285;-77
2022/05/02 09:37:56;;;;;;;0.50;0.50;;;19.90;1.00;;;;;;5054553;28;20186;-76
2022/05/02 09:40:33;;;;;;;0.50;0.50;;;20.70;1.00;;;;;;5055988;28;20187;-74
2022/05/02 09:43:14;;;;;;;0.30;0.30;;;21.30;1.00;;;;;;5056646;28;20175;-73
2022/05/02 09:52:28;;;;;;;0.30;0.30;;;19.00;1.00;;;;;;5054011;28;20206;-74
2022/05/02 09:58:30;;;;;;;0.30;0.30;;;19.90;1.00;;;;;;5040761;28;20223;-74
2022/05/02 10:01:21;;;;;;;0.30;0.30;;;19.90;1.00;;;;;;5042018;28;20563;-75
2022/05/02 10:04:01;;;;;;;0.30;0.30;;;20.50;1.00;;;;;;5054368;28;20186;-75
2022/05/02 10:06:34;;;;;;;0.30;0.30;;;21.10;1.00;;;;;;5054138;28;20262;-75
2022/05/02 10:09:18;;;;;;;0.43;0.43;;;22.00;1.00;;;;;;5053765;28;20171;-74
2022/05/02 10:12:02;;;;;;;0.40;0.40;;;21.40;1.00;;;;;;5048608;28;20191;-74
2022/05/02 10:14:50;;;;;;;0.40;0.40;;;20.60;1.00;;;;;;5043852;28;20204;-73
2022/05/02 10:17:24;;;;;;;0.33;0.33;;;20.60;1.00;;;;;;5044355;28;20175;-73
2022/05/02 10:20:16;;;;;;;0.50;0.50;;;20.30;1.00;;;;;;5049371;28;20257;-73
2022/05/02 10:23:03;;;;;;;0.40;0.40;;;20.10;1.00;;;;;;5046800;28;20167;-76
2022/05/02 10:25:51;;;;;;;0.40;0.40;;;19.70;1.00;;;;;;5041611;28;20195;-75
2022/05/02 10:28:38;;;;;;;0.40;0.40;;;20.00;1.00;;;;;;5037340;28;20678;-74
2022/05/02 10:31:09;;;;;;;0.40;0.40;;;20.10;1.00;;;;;;5042610;28;20704;-73
2022/05/02 10:33:46;;;;;;;0.40;0.40;;;20.30;1.00;;;;;;5036884;28;20210;-73
2022/05/02 10:36:12;;;;;;;0.40;0.40;;;20.10;1.00;;;;;;5039690;28;20620;-73
2022/05/02 10:39:01;;;;;;;0.40;0.40;;;19.80;1.00;;;;;;5042623;28;20265;-74
2022/05/02 10:41:30;;;;;;;0.40;0.40;;;20.60;1.00;;;;;;5041822;28;20200;-73
2022/05/02 10:44:03;;;;;;;0.33;0.33;;;20.60;1.00;;;;;;5042729;28;20168;-73
2022/05/02 10:46:31;;;;;;;0.40;0.40;;;20.70;1.00;;;;;;5041780;28;20180;-75
2022/05/02 10:49:11;;;;;;;0.40;0.40;;;20.90;1.00;;;;;;5052838;28;20168;-76
2022/05/02 10:51:52;;;;;;;0.30;0.30;;;21.80;1.00;;;;;;5046393;28;20198;-75
2022/05/02 10:54:38;;;;;;;0.50;0.50;;;21.60;1.00;;;;;;5013283;28;20258;-73
2022/05/02 10:57:30;;;;;;;0.40;0.40;;;19.60;1.00;;;;;;5019365;28;20623;-74
2022/05/02 11:00:02;;;;;;;0.40;0.40;;;20.60;1.00;;;;;;5011869;28;20555;-73
2022/05/02 11:02:31;;;;;;;0.43;0.43;;;20.40;1.00;;;;;;5039233;28;20187;-75
2022/05/02 11:04:59;;;;;;;0.30;0.30;;;20.60;1.00;;;;;;5034460;28;20191;-74
2022/05/02 11:07:50;;;;;;;0.40;0.40;;;21.00;1.00;;;;;;5039719;28;20194;-74
2022/05/02 11:10:19;;;;;;;0.40;0.40;;;21.10;1.00;;;;;;5005645;28;20219;-75
2022/05/02 11:13:28;;;;;;;0.37;0.37;;;21.40;1.00;;;;;;5010937;28;20559;-73
2022/05/02 11:16:32;;;;;;;0.40;0.40;;;21.00;1.00;;;;;;5027755;28;20227;-73
2022/05/02 11:22:35;;;;;;;0.40;0.40;;;21.60;1.00;;;;;;5049045;28;20571;-74
2022/05/02 11:25:18;;;;;;;0.40;0.40;;;21.60;1.00;;;;;;5043469;28;20273;-76
2022/05/02 11:28:23;;;;;;;0.40;0.40;;;21.00;1.00;;;;;;5042657;28;20228;-74
2022/05/02 11:30:54;;;;;;;0.50;0.50;;;21.30;1.00;;;;;;5049281;28;20207;-74
2022/05/02 11:33:41;;;;;;;0.30;0.30;;;20.90;1.00;;;;;;5040117;28;20179;-74
2022/05/02 11:36:10;;;;;;;0.40;0.40;;;21.00;1.00;;;;;;5042300;28;20298;-75
2022/05/02 11:38:56;;;;;;;0.30;0.30;;;21.80;1.00;;;;;;5036978;28;20175;-78
2022/05/02 11:41:23;;;;;;;0.30;0.30;;;21.90;1.00;;;;;;5034344;28;20277;-78
2022/05/02 11:43:55;;;;;;;0.40;0.40;;;22.80;1.00;;;;;;5046189;28;20528;-77
2022/05/02 11:46:23;;;;;;;0.40;0.40;;;23.10;1.00;;;;;;5043974;28;20186;-78
2022/05/02 11:49:04;;;;;;;0.40;0.40;;;22.70;1.00;;;;;;5046962;28;20633;-78
2022/05/02 11:51:30;;;;;;;0.40;0.40;;;23.00;1.00;;;;;;5050014;28;20230;-76
2022/05/02 11:53:58;;;;;;;0.40;0.40;;;23.40;1.00;;;;;;5053822;28;20233;-76
2022/05/02 11:56:36;;;;;;;0.40;0.40;;;22.70;1.00;;;;;;5038080;28;20176;-76
2022/05/02 11:59:12;;;;;;;0.40;0.40;;;22.40;1.00;;;;;;5033484;28;20180;-75
2022/05/02 12:01:44;;;;;;;0.40;0.40;;;22.40;1.00;;;;;;5035227;28;20191;-75
2022/05/02 12:04:14;;;;;;;0.30;0.30;;;22.50;1.00;;;;;;5032890;28;20553;-75
2022/05/02 12:06:59;;;;;;;0.30;0.30;;;22.30;1.00;;;;;;5032676;28;20175;-76
2022/05/02 12:09:24;;;;;;;0.40;0.40;;;22.90;1.00;;;;;;5030485;28;20179;-76
2022/05/02 12:11:55;;;;;;;0.50;0.50;;;23.30;1.00;;;;;;5031230;28;20727;-77
2022/05/02 12:14:22;;;;;;;0.40;0.40;;;23.80;1.00;;;;;;5031244;28;20545;-77
2022/05/02 12:17:06;;;;;;;0.33;0.33;;;22.80;1.00;;;;;;5031312;28;20621;-76
2022/05/02 12:19:33;;;;;;;0.30;0.30;;;21.50;1.00;;;;;;5032970;28;20175;-76
2022/05/02 12:22:02;;;;;;;0.30;0.30;;;21.80;1.00;;;;;;5033872;28;20195;-77
2022/05/02 12:24:33;;;;;;;0.30;0.30;;;22.40;1.00;;;;;;5038352;28;20538;-79
2022/05/02 12:26:59;;;;;;;0.40;0.40;;;23.10;1.00;;;;;;5033048;28;20184;-77
2022/05/02 12:29:27;;;;;;;0.30;0.30;;;23.50;1.00;;;;;;5031357;28;20176;-78
2022/05/02 12:31:58;;;;;;;0.40;0.40;;;23.90;1.00;;;;;;5032146;28;20191;-78
2022/05/02 12:34:36;;;;;;;0.47;0.47;;;23.80;1.00;;;;;;5032257;28;20619;-77
2022/05/02 12:37:32;;;;;;;0.50;0.50;;;24.00;1.00;;;;;;5031576;28;20597;-78
2022/05/02 12:40:14;;;;;;;0.30;0.30;;;23.40;1.00;;;;;;5037124;28;20730;-78
2022/05/02 12:42:55;;;;;;;0.40;0.40;;;22.30;1.00;;;;;;5053362;28;20183;-78
2022/05/02 12:45:22;;;;;;;0.40;0.40;;;21.60;1.00;;;;;;5054539;28;20254;-77
2022/05/02 12:48:06;;;;;;;0.40;0.40;;;21.10;1.00;;;;;;5047103;28;20267;-79
2022/05/02 12:50:44;;;;;;;0.40;0.40;;;20.70;1.00;;;;;;5030099;28;20198;-77
2022/05/02 12:54:09;;;;;;;0.40;0.40;;;20.80;1.00;;;;;;5030612;28;20230;-77
2022/05/02 12:56:22;;;;;;;0.33;0.33;;;20.60;1.00;;;;;;5030493;28;20186;-76
2022/05/02 13:01:48;;;;;;;0.30;0.30;;;20.30;1.00;;;;;;5029093;28;20230;-75
2022/05/02 13:04:19;;;;;;;0.40;0.40;;;20.40;1.00;;;;;;5029947;28;20259;-76
2022/05/02 13:06:46;;;;;;;0.40;0.40;;;20.30;1.00;;;;;;5029948;28;20174;-75
2022/05/02 13:09:18;;;;;;;0.40;0.40;;;20.50;1.00;;;;;;5030459;28;20176;-75
2022/05/02 13:11:45;;;;;;;0.37;0.37;;;20.00;1.00;;;;;;5030763;28;20249;-75
2022/05/02 13:14:22;;;;;;;0.40;0.40;;;19.80;1.00;;;;;;5031189;28;20179;-76
2022/05/02 13:16:48;;;;;;;0.40;0.40;;;20.00;1.00;;;;;;5028568;28;20581;-76
2022/05/02 13:19:14;;;;;;;0.40;0.40;;;20.60;1.00;;;;;;5030305;28;20641;-76
2022/05/02 13:21:39;;;;;;;0.30;0.30;;;20.60;1.00;;;;;;5030181;28;20202;-76
2022/05/02 13:24:17;;;;;;;0.30;0.30;;;20.10;1.00;;;;;;5030514;28;20175;-77
2022/05/02 13:27:08;;;;;;;0.30;0.30;;;20.90;1.00;;;;;;5028527;28;20253;-76
2022/05/02 13:30:02;;;;;;;0.30;0.30;;;20.80;1.00;;;;;;5031198;28;20176;-76
2022/05/02 13:32:34;;;;;;;0.30;0.30;;;20.80;1.00;;;;;;5033490;28;20204;-76
2022/05/02 13:35:00;;;;;;;0.30;0.30;;;20.30;1.00;;;;;;5022865;28;20214;-75
2022/05/02 13:37:37;;;;;;;0.50;0.50;;;20.70;1.00;;;;;;5041239;28;20168;-76
2022/05/02 13:40:04;;;;;;;0.30;0.30;;;21.40;1.00;;;;;;5036697;28;20270;-76
2022/05/02 13:42:57;;;;;;;0.40;0.40;;;20.70;1.00;;;;;;5015371;28;20176;-77
2022/05/02 13:45:35;;;;;;;0.30;0.30;;;21.10;1.00;;;;;;5033180;28;20198;-77
2022/05/02 13:48:18;;;;;;;0.30;0.30;;;21.70;1.00;;;;;;5031157;28;20243;-76
2022/05/02 13:51:05;;;;;;;0.40;0.40;;;22.30;1.00;;;;;;5031168;28;20203;-77
2022/05/02 13:53:49;;;;;;;0.33;0.33;;;22.60;1.00;;;;;;5031515;28;20172;-77
2022/05/02 13:56:39;;;;;;;0.30;0.30;;;22.90;1.00;;;;;;5034254;28;20270;-77
2022/05/02 13:59:15;;;;;;;0.30;0.30;;;22.90;1.00;;;;;;5035016;28;20184;-78
2022/05/02 14:02:00;;;;;;;0.30;0.30;;;22.70;1.00;;;;;;5035534;28;20196;-76